sensor_id;sensor_type;location;lat;lon;timestamp;P1;durP1;ratioP1;P2;durP2;ratioP2
17741;SDS011;8993;51.822;-2.268;2022-08-19T00:02:35;3.76;;;0.72;;
17741;SDS011;8993;51.822;-2.268;2022-08-19T00:07:39;3.21;;;0.74;;
17741;SDS011;8993;51.822;-2.268;2022-08-19T00:12:43;3.27;;;0.79;;
17741;SDS011;8993;51.822;-2.268;2022-08-19T00:17:48;3.28;;;0.82;;
17741;SDS011;8993;51.822;-2.268;2022-08-19T00:22:52;3.93;;;0.75;;
17741;SDS011;8993;51.822;-2.268;2022-08-19T00:27:56;3.25;;;0.73;;
17741;SDS011;8993;51.822;-2.268;2022-08-19T00:33:00;3.47;;;0.75;;
17741;SDS011;8993;51.822;-2.268;2022-08-19T00:38:05;2.21;;;0.76;;
17741;SDS011;8993;51.822;-2.268;2022-08-19T00:43:09;3.10;;;0.76;;
17741;SDS011;8993;51.822;-2.268;2022-08-19T00:48:13;3.36;;;0.77;;
17741;SDS011;8993;51.822;-2.268;2022-08-19T00:53:19;2.60;;;0.56;;
17741;SDS011;8993;51.822;-2.268;2022-08-19T00:58:23;3.18;;;0.61;;
17741;SDS011;8993;51.822;-2.268;2022-08-19T01:03:26;2.30;;;0.54;;
17741;SDS011;8993;51.822;-2.268;2022-08-19T01:08:30;1.71;;;0.47;;
17741;SDS011;8993;51.822;-2.268;2022-08-19T01:13:34;1.23;;;0.37;;
17741;SDS011;8993;51.822;-2.268;2022-08-19T01:18:40;2.19;;;0.44;;
17741;SDS011;8993;51.822;-2.268;2022-08-19T01:23:43;1.85;;;0.44;;
17741;SDS011;8993;51.822;-2.268;2022-08-19T01:28:48;1.93;;;0.49;;
17741;SDS011;8993;51.822;-2.268;2022-08-19T01:33:52;3.66;;;0.51;;
17741;SDS011;8993;51.822;-2.268;2022-08-19T01:38:57;3.18;;;0.67;;
17741;SDS011;8993;51.822;-2.268;2022-08-19T01:44:00;1.98;;;0.69;;
17741;SDS011;8993;51.822;-2.268;2022-08-19T01:49:05;3.19;;;0.71;;
17741;SDS011;8993;51.822;-2.268;2022-08-19T01:54:09;2.72;;;0.86;;
17741;SDS011;8993;51.822;-2.268;2022-08-19T01:59:14;2.12;;;0.74;;
17741;SDS011;8993;51.822;-2.268;2022-08-19T02:04:18;3.34;;;0.86;;
17741;SDS011;8993;51.822;-2.268;2022-08-19T02:09:22;3.57;;;0.82;;
17741;SDS011;8993;51.822;-2.268;2022-08-19T02:14:27;2.60;;;0.77;;
17741;SDS011;8993;51.822;-2.268;2022-08-19T02:19:32;3.16;;;0.95;;
17741;SDS011;8993;51.822;-2.268;2022-08-19T02:24:36;3.49;;;0.80;;
17741;SDS011;8993;51.822;-2.268;2022-08-19T02:29:40;3.40;;;0.90;;
17741;SDS011;8993;51.822;-2.268;2022-08-19T02:34:44;2.43;;;0.87;;
17741;SDS011;8993;51.822;-2.268;2022-08-19T02:39:49;3.45;;;1.01;;
17741;SDS011;8993;51.822;-2.268;2022-08-19T02:44:55;3.82;;;1.20;;
17741;SDS011;8993;51.822;-2.268;2022-08-19T02:49:57;3.17;;;1.11;;
17741;SDS011;8993;51.822;-2.268;2022-08-19T02:55:02;2.93;;;0.99;;
17741;SDS011;8993;51.822;-2.268;2022-08-19T03:00:06;5.43;;;1.33;;
17741;SDS011;8993;51.822;-2.268;2022-08-19T03:05:10;3.77;;;1.17;;
17741;SDS011;8993;51.822;-2.268;2022-08-19T03:10:14;3.70;;;1.21;;
17741;SDS011;8993;51.822;-2.268;2022-08-19T03:15:19;3.75;;;1.22;;
17741;SDS011;8993;51.822;-2.268;2022-08-19T03:20:23;4.50;;;1.44;;
17741;SDS011;8993;51.822;-2.268;2022-08-19T03:25:27;5.64;;;1.74;;
17741;SDS011;8993;51.822;-2.268;2022-08-19T03:30:31;5.54;;;2.01;;
17741;SDS011;8993;51.822;-2.268;2022-08-19T03:35:35;6.72;;;2.28;;
17741;SDS011;8993;51.822;-2.268;2022-08-19T03:40:40;6.96;;;2.67;;
17741;SDS011;8993;51.822;-2.268;2022-08-19T03:45:44;4.47;;;2.52;;
17741;SDS011;8993;51.822;-2.268;2022-08-19T03:50:48;7.63;;;2.92;;
17741;SDS011;8993;51.822;-2.268;2022-08-19T03:55:52;6.15;;;3.55;;
17741;SDS011;8993;51.822;-2.268;2022-08-19T04:00:57;8.09;;;3.82;;
17741;SDS011;8993;51.822;-2.268;2022-08-19T04:06:08;7.74;;;3.96;;
17741;SDS011;8993;51.822;-2.268;2022-08-19T04:11:06;7.22;;;4.01;;
17741;SDS011;8993;51.822;-2.268;2022-08-19T04:16:10;6.53;;;3.22;;
17741;SDS011;8993;51.822;-2.268;2022-08-19T04:21:15;5.04;;;2.98;;
17741;SDS011;8993;51.822;-2.268;2022-08-19T04:26:19;5.12;;;3.26;;
17741;SDS011;8993;51.822;-2.268;2022-08-19T04:31:24;6.84;;;3.83;;
17741;SDS011;8993;51.822;-2.268;2022-08-19T04:36:28;8.10;;;3.46;;
17741;SDS011;8993;51.822;-2.268;2022-08-19T04:41:31;7.71;;;2.96;;
17741;SDS011;8993;51.822;-2.268;2022-08-19T04:46:36;6.11;;;2.48;;
17741;SDS011;8993;51.822;-2.268;2022-08-19T04:51:40;6.36;;;2.67;;
17741;SDS011;8993;51.822;-2.268;2022-08-19T04:56:44;7.28;;;2.40;;
17741;SDS011;8993;51.822;-2.268;2022-08-19T05:01:48;7.57;;;1.98;;
17741;SDS011;8993;51.822;-2.268;2022-08-19T05:06:52;9.31;;;1.83;;
17741;SDS011;8993;51.822;-2.268;2022-08-19T05:11:57;9.32;;;1.85;;
17741;SDS011;8993;51.822;-2.268;2022-08-19T05:17:01;7.75;;;1.68;;
17741;SDS011;8993;51.822;-2.268;2022-08-19T05:22:05;8.94;;;1.78;;
17741;SDS011;8993;51.822;-2.268;2022-08-19T05:27:09;10.00;;;1.79;;
17741;SDS011;8993;51.822;-2.268;2022-08-19T05:32:13;11.56;;;1.86;;
17741;SDS011;8993;51.822;-2.268;2022-08-19T05:37:17;8.49;;;1.62;;
17741;SDS011;8993;51.822;-2.268;2022-08-19T05:42:22;9.65;;;1.77;;
17741;SDS011;8993;51.822;-2.268;2022-08-19T05:47:26;9.94;;;1.78;;
17741;SDS011;8993;51.822;-2.268;2022-08-19T05:52:30;12.29;;;1.98;;
17741;SDS011;8993;51.822;-2.268;2022-08-19T05:57:34;15.61;;;1.89;;
17741;SDS011;8993;51.822;-2.268;2022-08-19T06:02:39;11.91;;;1.66;;
17741;SDS011;8993;51.822;-2.268;2022-08-19T06:07:43;14.89;;;1.78;;
17741;SDS011;8993;51.822;-2.268;2022-08-19T06:12:47;16.42;;;1.97;;
17741;SDS011;8993;51.822;-2.268;2022-08-19T06:17:51;21.20;;;2.43;;
17741;SDS011;8993;51.822;-2.268;2022-08-19T06:22:57;12.58;;;1.70;;
17741;SDS011;8993;51.822;-2.268;2022-08-19T06:28:01;13.04;;;2.21;;
17741;SDS011;8993;51.822;-2.268;2022-08-19T06:33:06;17.28;;;2.18;;
17741;SDS011;8993;51.822;-2.268;2022-08-19T06:38:10;16.24;;;1.97;;
17741;SDS011;8993;51.822;-2.268;2022-08-19T06:43:14;19.03;;;2.27;;
17741;SDS011;8993;51.822;-2.268;2022-08-19T06:48:19;17.65;;;2.10;;
17741;SDS011;8993;51.822;-2.268;2022-08-19T06:53:23;17.96;;;2.10;;
17741;SDS011;8993;51.822;-2.268;2022-08-19T06:58:28;15.77;;;1.71;;
17741;SDS011;8993;51.822;-2.268;2022-08-19T07:03:32;16.96;;;1.75;;
17741;SDS011;8993;51.822;-2.268;2022-08-19T07:08:36;18.00;;;1.90;;
17741;SDS011;8993;51.822;-2.268;2022-08-19T07:13:41;15.80;;;1.97;;
17741;SDS011;8993;51.822;-2.268;2022-08-19T07:18:45;17.47;;;2.01;;
17741;SDS011;8993;51.822;-2.268;2022-08-19T07:23:49;16.15;;;1.91;;
17741;SDS011;8993;51.822;-2.268;2022-08-19T07:28:53;20.05;;;2.09;;
17741;SDS011;8993;51.822;-2.268;2022-08-19T07:33:58;21.85;;;2.31;;
17741;SDS011;8993;51.822;-2.268;2022-08-19T07:39:03;19.67;;;2.14;;
17741;SDS011;8993;51.822;-2.268;2022-08-19T07:44:07;22.43;;;2.27;;
17741;SDS011;8993;51.822;-2.268;2022-08-19T07:49:11;24.14;;;2.48;;
17741;SDS011;8993;51.822;-2.268;2022-08-19T07:54:15;20.22;;;2.15;;
17741;SDS011;8993;51.822;-2.268;2022-08-19T07:59:20;19.31;;;2.30;;
17741;SDS011;8993;51.822;-2.268;2022-08-19T08:04:23;21.73;;;2.23;;
17741;SDS011;8993;51.822;-2.268;2022-08-19T08:09:30;21.64;;;2.31;;
17741;SDS011;8993;51.822;-2.268;2022-08-19T08:14:34;16.29;;;1.92;;
17741;SDS011;8993;51.822;-2.268;2022-08-19T08:19:37;19.98;;;2.06;;
17741;SDS011;8993;51.822;-2.268;2022-08-19T08:24:40;17.29;;;1.95;;
17741;SDS011;8993;51.822;-2.268;2022-08-19T08:29:45;16.35;;;1.78;;
17741;SDS011;8993;51.822;-2.268;2022-08-19T08:34:49;16.69;;;2.06;;
17741;SDS011;8993;51.822;-2.268;2022-08-19T08:39:53;11.70;;;1.54;;
17741;SDS011;8993;51.822;-2.268;2022-08-19T08:44:59;14.25;;;1.86;;
17741;SDS011;8993;51.822;-2.268;2022-08-19T08:50:03;20.15;;;2.23;;
17741;SDS011;8993;51.822;-2.268;2022-08-19T08:55:08;16.23;;;1.88;;
17741;SDS011;8993;51.822;-2.268;2022-08-19T09:00:13;12.72;;;1.56;;
17741;SDS011;8993;51.822;-2.268;2022-08-19T09:05:15;14.37;;;1.46;;
17741;SDS011;8993;51.822;-2.268;2022-08-19T09:10:21;11.96;;;1.59;;
17741;SDS011;8993;51.822;-2.268;2022-08-19T09:15:27;17.77;;;1.67;;
17741;SDS011;8993;51.822;-2.268;2022-08-19T09:20:28;12.73;;;1.53;;
17741;SDS011;8993;51.822;-2.268;2022-08-19T09:25:32;9.36;;;1.41;;
17741;SDS011;8993;51.822;-2.268;2022-08-19T09:30:39;10.05;;;1.25;;
17741;SDS011;8993;51.822;-2.268;2022-08-19T09:35:42;11.86;;;1.36;;
17741;SDS011;8993;51.822;-2.268;2022-08-19T09:40:47;9.97;;;1.35;;
17741;SDS011;8993;51.822;-2.268;2022-08-19T09:45:52;12.28;;;1.51;;
17741;SDS011;8993;51.822;-2.268;2022-08-19T09:50:55;9.42;;;1.19;;
17741;SDS011;8993;51.822;-2.268;2022-08-19T09:55:59;13.40;;;1.48;;
17741;SDS011;8993;51.822;-2.268;2022-08-19T10:01:03;11.06;;;1.61;;
17741;SDS011;8993;51.822;-2.268;2022-08-19T10:06:07;9.11;;;1.26;;
17741;SDS011;8993;51.822;-2.268;2022-08-19T10:11:12;10.94;;;1.30;;
17741;SDS011;8993;51.822;-2.268;2022-08-19T10:16:17;11.94;;;1.42;;
17741;SDS011;8993;51.822;-2.268;2022-08-19T10:21:21;11.62;;;1.49;;
17741;SDS011;8993;51.822;-2.268;2022-08-19T10:26:25;13.69;;;1.56;;
17741;SDS011;8993;51.822;-2.268;2022-08-19T10:31:30;15.55;;;1.71;;
17741;SDS011;8993;51.822;-2.268;2022-08-19T10:36:34;12.12;;;1.39;;
17741;SDS011;8993;51.822;-2.268;2022-08-19T10:41:37;12.68;;;1.41;;
17741;SDS011;8993;51.822;-2.268;2022-08-19T10:46:42;16.09;;;1.70;;
17741;SDS011;8993;51.822;-2.268;2022-08-19T10:51:46;12.19;;;1.49;;
17741;SDS011;8993;51.822;-2.268;2022-08-19T10:56:50;12.12;;;1.32;;
17741;SDS011;8993;51.822;-2.268;2022-08-19T11:01:58;11.29;;;1.44;;
17741;SDS011;8993;51.822;-2.268;2022-08-19T11:06:59;11.21;;;1.43;;
17741;SDS011;8993;51.822;-2.268;2022-08-19T11:12:03;11.12;;;1.47;;
17741;SDS011;8993;51.822;-2.268;2022-08-19T11:17:07;10.53;;;1.29;;
17741;SDS011;8993;51.822;-2.268;2022-08-19T11:22:11;9.21;;;1.38;;
17741;SDS011;8993;51.822;-2.268;2022-08-19T11:27:16;12.82;;;1.76;;
17741;SDS011;8993;51.822;-2.268;2022-08-19T11:32:20;12.48;;;1.36;;
17741;SDS011;8993;51.822;-2.268;2022-08-19T11:37:24;11.78;;;1.37;;
17741;SDS011;8993;51.822;-2.268;2022-08-19T11:42:28;12.73;;;1.53;;
17741;SDS011;8993;51.822;-2.268;2022-08-19T11:47:32;8.03;;;1.19;;
17741;SDS011;8993;51.822;-2.268;2022-08-19T11:52:37;10.12;;;1.17;;
17741;SDS011;8993;51.822;-2.268;2022-08-19T11:57:41;13.49;;;1.40;;
17741;SDS011;8993;51.822;-2.268;2022-08-19T12:02:46;9.93;;;1.41;;
17741;SDS011;8993;51.822;-2.268;2022-08-19T12:07:50;11.27;;;1.42;;
17741;SDS011;8993;51.822;-2.268;2022-08-19T12:12:54;11.72;;;1.23;;
17741;SDS011;8993;51.822;-2.268;2022-08-19T12:17:58;8.56;;;0.97;;
17741;SDS011;8993;51.822;-2.268;2022-08-19T12:23:03;10.63;;;0.98;;
17741;SDS011;8993;51.822;-2.268;2022-08-19T12:28:07;6.65;;;0.89;;
17741;SDS011;8993;51.822;-2.268;2022-08-19T12:33:11;6.43;;;0.82;;
17741;SDS011;8993;51.822;-2.268;2022-08-19T12:38:15;6.29;;;0.81;;
17741;SDS011;8993;51.822;-2.268;2022-08-19T12:43:19;7.74;;;0.92;;
17741;SDS011;8993;51.822;-2.268;2022-08-19T12:48:23;5.21;;;0.79;;
17741;SDS011;8993;51.822;-2.268;2022-08-19T12:53:29;6.29;;;0.88;;
17741;SDS011;8993;51.822;-2.268;2022-08-19T12:58:33;6.73;;;0.74;;
17741;SDS011;8993;51.822;-2.268;2022-08-19T13:03:38;5.39;;;0.72;;
17741;SDS011;8993;51.822;-2.268;2022-08-19T13:08:42;5.71;;;0.73;;
17741;SDS011;8993;51.822;-2.268;2022-08-19T13:13:47;6.18;;;0.85;;
17741;SDS011;8993;51.822;-2.268;2022-08-19T13:18:51;4.12;;;0.75;;
17741;SDS011;8993;51.822;-2.268;2022-08-19T13:23:56;7.50;;;0.80;;
17741;SDS011;8993;51.822;-2.268;2022-08-19T13:29:00;7.58;;;1.01;;
17741;SDS011;8993;51.822;-2.268;2022-08-19T13:34:05;6.38;;;0.97;;
17741;SDS011;8993;51.822;-2.268;2022-08-19T13:39:09;6.36;;;0.94;;
17741;SDS011;8993;51.822;-2.268;2022-08-19T13:44:13;6.99;;;1.12;;
17741;SDS011;8993;51.822;-2.268;2022-08-19T13:49:17;7.03;;;1.19;;
17741;SDS011;8993;51.822;-2.268;2022-08-19T13:54:22;10.16;;;1.24;;
17741;SDS011;8993;51.822;-2.268;2022-08-19T13:59:26;10.98;;;1.25;;
17741;SDS011;8993;51.822;-2.268;2022-08-19T14:04:31;10.01;;;1.12;;
17741;SDS011;8993;51.822;-2.268;2022-08-19T14:09:36;10.96;;;1.39;;
17741;SDS011;8993;51.822;-2.268;2022-08-19T14:14:40;10.11;;;1.32;;
17741;SDS011;8993;51.822;-2.268;2022-08-19T14:19:45;9.15;;;1.29;;
17741;SDS011;8993;51.822;-2.268;2022-08-19T14:24:49;8.06;;;1.17;;
17741;SDS011;8993;51.822;-2.268;2022-08-19T14:30:08;6.90;;;1.10;;
17741;SDS011;8993;51.822;-2.268;2022-08-19T14:34:57;6.48;;;1.07;;
17741;SDS011;8993;51.822;-2.268;2022-08-19T14:40:02;7.78;;;1.27;;
17741;SDS011;8993;51.822;-2.268;2022-08-19T14:45:09;7.32;;;1.32;;
17741;SDS011;8993;51.822;-2.268;2022-08-19T14:50:11;6.75;;;1.18;;
17741;SDS011;8993;51.822;-2.268;2022-08-19T14:55:16;6.85;;;1.34;;
17741;SDS011;8993;51.822;-2.268;2022-08-19T15:00:20;9.57;;;1.46;;
17741;SDS011;8993;51.822;-2.268;2022-08-19T15:05:24;9.90;;;1.36;;
17741;SDS011;8993;51.822;-2.268;2022-08-19T15:10:29;8.02;;;1.39;;
17741;SDS011;8993;51.822;-2.268;2022-08-19T15:15:33;9.48;;;1.57;;
17741;SDS011;8993;51.822;-2.268;2022-08-19T15:20:37;9.97;;;1.42;;
17741;SDS011;8993;51.822;-2.268;2022-08-19T15:25:41;9.18;;;1.39;;
17741;SDS011;8993;51.822;-2.268;2022-08-19T15:30:45;8.28;;;1.29;;
17741;SDS011;8993;51.822;-2.268;2022-08-19T15:35:50;6.79;;;1.17;;
17741;SDS011;8993;51.822;-2.268;2022-08-19T15:40:54;7.05;;;1.19;;
17741;SDS011;8993;51.822;-2.268;2022-08-19T15:45:58;8.46;;;1.19;;
17741;SDS011;8993;51.822;-2.268;2022-08-19T15:51:02;7.18;;;1.19;;
17741;SDS011;8993;51.822;-2.268;2022-08-19T15:56:07;5.78;;;0.95;;
17741;SDS011;8993;51.822;-2.268;2022-08-19T16:01:11;5.22;;;0.88;;
17741;SDS011;8993;51.822;-2.268;2022-08-19T16:06:17;4.88;;;0.75;;
17741;SDS011;8993;51.822;-2.268;2022-08-19T16:11:22;5.08;;;0.89;;
17741;SDS011;8993;51.822;-2.268;2022-08-19T16:16:26;4.07;;;0.94;;
17741;SDS011;8993;51.822;-2.268;2022-08-19T16:21:30;4.73;;;0.75;;
17741;SDS011;8993;51.822;-2.268;2022-08-19T16:26:34;5.48;;;0.84;;
17741;SDS011;8993;51.822;-2.268;2022-08-19T16:31:39;4.72;;;0.90;;
17741;SDS011;8993;51.822;-2.268;2022-08-19T16:36:42;5.59;;;0.80;;
17741;SDS011;8993;51.822;-2.268;2022-08-19T16:41:46;4.88;;;0.88;;
17741;SDS011;8993;51.822;-2.268;2022-08-19T16:46:51;3.87;;;0.72;;
17741;SDS011;8993;51.822;-2.268;2022-08-19T16:51:55;5.86;;;0.85;;
17741;SDS011;8993;51.822;-2.268;2022-08-19T16:56:59;3.88;;;0.78;;
17741;SDS011;8993;51.822;-2.268;2022-08-19T17:02:03;5.85;;;0.79;;
17741;SDS011;8993;51.822;-2.268;2022-08-19T17:07:08;7.07;;;0.89;;
17741;SDS011;8993;51.822;-2.268;2022-08-19T17:12:12;4.83;;;0.81;;
17741;SDS011;8993;51.822;-2.268;2022-08-19T17:17:16;4.32;;;0.83;;
17741;SDS011;8993;51.822;-2.268;2022-08-19T17:22:20;4.99;;;0.78;;
17741;SDS011;8993;51.822;-2.268;2022-08-19T17:27:26;5.93;;;0.92;;
17741;SDS011;8993;51.822;-2.268;2022-08-19T17:32:31;6.43;;;1.05;;
17741;SDS011;8993;51.822;-2.268;2022-08-19T17:37:34;5.63;;;0.94;;
17741;SDS011;8993;51.822;-2.268;2022-08-19T17:42:39;7.17;;;0.91;;
17741;SDS011;8993;51.822;-2.268;2022-08-19T17:47:43;5.20;;;0.88;;
17741;SDS011;8993;51.822;-2.268;2022-08-19T17:52:48;5.10;;;0.89;;
17741;SDS011;8993;51.822;-2.268;2022-08-19T17:57:52;4.51;;;0.83;;
17741;SDS011;8993;51.822;-2.268;2022-08-19T18:02:58;4.50;;;0.77;;
17741;SDS011;8993;51.822;-2.268;2022-08-19T18:08:01;4.59;;;0.79;;
17741;SDS011;8993;51.822;-2.268;2022-08-19T18:13:05;5.91;;;0.81;;
17741;SDS011;8993;51.822;-2.268;2022-08-19T18:18:09;6.02;;;0.81;;
17741;SDS011;8993;51.822;-2.268;2022-08-19T18:23:14;4.56;;;0.73;;
17741;SDS011;8993;51.822;-2.268;2022-08-19T18:28:19;8.50;;;0.95;;
17741;SDS011;8993;51.822;-2.268;2022-08-19T18:33:24;8.76;;;0.93;;
17741;SDS011;8993;51.822;-2.268;2022-08-19T18:38:28;5.04;;;0.77;;
17741;SDS011;8993;51.822;-2.268;2022-08-19T18:43:32;6.80;;;0.80;;
17741;SDS011;8993;51.822;-2.268;2022-08-19T18:48:37;6.40;;;0.95;;
17741;SDS011;8993;51.822;-2.268;2022-08-19T18:53:42;7.81;;;0.83;;
17741;SDS011;8993;51.822;-2.268;2022-08-19T18:58:46;6.83;;;0.87;;
17741;SDS011;8993;51.822;-2.268;2022-08-19T19:03:51;5.96;;;0.89;;
17741;SDS011;8993;51.822;-2.268;2022-08-19T19:08:55;6.90;;;0.94;;
17741;SDS011;8993;51.822;-2.268;2022-08-19T19:13:59;9.55;;;1.17;;
17741;SDS011;8993;51.822;-2.268;2022-08-19T19:19:03;8.66;;;1.02;;
17741;SDS011;8993;51.822;-2.268;2022-08-19T19:24:09;7.29;;;1.00;;
17741;SDS011;8993;51.822;-2.268;2022-08-19T19:29:14;6.44;;;0.99;;
17741;SDS011;8993;51.822;-2.268;2022-08-19T19:34:19;5.66;;;0.96;;
17741;SDS011;8993;51.822;-2.268;2022-08-19T19:39:22;7.54;;;1.06;;
17741;SDS011;8993;51.822;-2.268;2022-08-19T19:44:26;7.74;;;0.99;;
17741;SDS011;8993;51.822;-2.268;2022-08-19T19:49:31;8.70;;;1.16;;
17741;SDS011;8993;51.822;-2.268;2022-08-19T19:54:35;9.89;;;1.24;;
17741;SDS011;8993;51.822;-2.268;2022-08-19T19:59:39;8.65;;;1.16;;
17741;SDS011;8993;51.822;-2.268;2022-08-19T20:04:43;13.63;;;1.45;;
17741;SDS011;8993;51.822;-2.268;2022-08-19T20:09:48;10.46;;;1.35;;
17741;SDS011;8993;51.822;-2.268;2022-08-19T20:14:52;11.35;;;1.36;;
17741;SDS011;8993;51.822;-2.268;2022-08-19T20:19:56;7.51;;;1.11;;
17741;SDS011;8993;51.822;-2.268;2022-08-19T20:25:01;9.89;;;1.14;;
17741;SDS011;8993;51.822;-2.268;2022-08-19T20:30:07;7.44;;;1.00;;
17741;SDS011;8993;51.822;-2.268;2022-08-19T20:35:10;9.08;;;1.19;;
17741;SDS011;8993;51.822;-2.268;2022-08-19T20:40:14;9.06;;;1.30;;
17741;SDS011;8993;51.822;-2.268;2022-08-19T20:45:19;9.62;;;1.28;;
17741;SDS011;8993;51.822;-2.268;2022-08-19T20:50:23;7.88;;;1.21;;
17741;SDS011;8993;51.822;-2.268;2022-08-19T20:55:28;9.66;;;1.16;;
17741;SDS011;8993;51.822;-2.268;2022-08-19T21:00:32;7.92;;;1.11;;
17741;SDS011;8993;51.822;-2.268;2022-08-19T21:05:36;8.11;;;1.16;;
17741;SDS011;8993;51.822;-2.268;2022-08-19T21:10:40;10.53;;;1.16;;
17741;SDS011;8993;51.822;-2.268;2022-08-19T21:15:45;9.65;;;1.11;;
17741;SDS011;8993;51.822;-2.268;2022-08-19T21:20:49;10.58;;;1.07;;
17741;SDS011;8993;51.822;-2.268;2022-08-19T21:25:55;8.86;;;1.17;;
17741;SDS011;8993;51.822;-2.268;2022-08-19T21:30:58;10.36;;;1.23;;
17741;SDS011;8993;51.822;-2.268;2022-08-19T21:36:02;8.95;;;1.15;;
17741;SDS011;8993;51.822;-2.268;2022-08-19T21:41:06;8.85;;;1.14;;
17741;SDS011;8993;51.822;-2.268;2022-08-19T21:46:11;8.19;;;1.25;;
17741;SDS011;8993;51.822;-2.268;2022-08-19T21:51:15;9.45;;;1.23;;
17741;SDS011;8993;51.822;-2.268;2022-08-19T21:56:19;11.02;;;1.11;;
17741;SDS011;8993;51.822;-2.268;2022-08-19T22:01:23;9.04;;;1.25;;
17741;SDS011;8993;51.822;-2.268;2022-08-19T22:06:28;9.39;;;1.18;;
17741;SDS011;8993;51.822;-2.268;2022-08-19T22:11:32;10.19;;;1.38;;
17741;SDS011;8993;51.822;-2.268;2022-08-19T22:16:36;9.89;;;1.28;;
17741;SDS011;8993;51.822;-2.268;2022-08-19T22:21:42;8.86;;;1.09;;
17741;SDS011;8993;51.822;-2.268;2022-08-19T22:26:46;10.46;;;1.31;;
17741;SDS011;8993;51.822;-2.268;2022-08-19T22:31:50;10.52;;;1.18;;
17741;SDS011;8993;51.822;-2.268;2022-08-19T22:36:54;11.45;;;1.39;;
17741;SDS011;8993;51.822;-2.268;2022-08-19T22:41:58;12.60;;;1.32;;
17741;SDS011;8993;51.822;-2.268;2022-08-19T22:47:03;12.99;;;1.38;;
17741;SDS011;8993;51.822;-2.268;2022-08-19T22:52:07;11.00;;;1.34;;
17741;SDS011;8993;51.822;-2.268;2022-08-19T22:57:12;12.77;;;1.36;;
17741;SDS011;8993;51.822;-2.268;2022-08-19T23:02:17;11.61;;;1.28;;
17741;SDS011;8993;51.822;-2.268;2022-08-19T23:07:20;10.39;;;1.20;;
17741;SDS011;8993;51.822;-2.268;2022-08-19T23:12:27;10.32;;;1.40;;
17741;SDS011;8993;51.822;-2.268;2022-08-19T23:17:29;10.17;;;1.15;;
17741;SDS011;8993;51.822;-2.268;2022-08-19T23:22:36;8.83;;;1.15;;
17741;SDS011;8993;51.822;-2.268;2022-08-19T23:27:38;12.09;;;1.28;;
17741;SDS011;8993;51.822;-2.268;2022-08-19T23:32:42;11.73;;;1.49;;
17741;SDS011;8993;51.822;-2.268;2022-08-19T23:37:47;10.56;;;1.42;;
17741;SDS011;8993;51.822;-2.268;2022-08-19T23:42:53;12.84;;;1.84;;
17741;SDS011;8993;51.822;-2.268;2022-08-19T23:47:57;12.39;;;2.31;;
17741;SDS011;8993;51.822;-2.268;2022-08-19T23:53:02;10.89;;;1.54;;
17741;SDS011;8993;51.822;-2.268;2022-08-19T23:58:06;10.83;;;1.72;;
